sensor_id;sensor_type;location;lat;lon;timestamp;pressure;altitude;pressure_sealevel;temperature
74374;BMP180;62809;51.090;-115.358;2022-10-31T00:01:37;85954.80;;;20.00
74374;BMP180;62809;51.090;-115.358;2022-10-31T00:04:06;85939.60;;;20.00
74374;BMP180;62809;51.090;-115.358;2022-10-31T00:06:33;85918.80;;;20.00
74374;BMP180;62809;51.090;-115.358;2022-10-31T00:09:04;85932.60;;;20.00
74374;BMP180;62809;51.090;-115.358;2022-10-31T00:11:33;85950.00;;;20.00
74374;BMP180;62809;51.090;-115.358;2022-10-31T00:14:02;85950.60;;;20.00
74374;BMP180;62809;51.090;-115.358;2022-10-31T00:16:30;85964.60;;;20.00
74374;BMP180;62809;51.090;-115.358;2022-10-31T00:19:01;85954.00;;;20.00
74374;BMP180;62809;51.090;-115.358;2022-10-31T00:21:39;85935.60;;;20.00
74374;BMP180;62809;51.090;-115.358;2022-10-31T00:24:06;85933.00;;;20.00
74374;BMP180;62809;51.090;-115.358;2022-10-31T00:26:39;85926.00;;;19.98
74374;BMP180;62809;51.090;-115.358;2022-10-31T00:29:06;85907.60;;;19.98
74374;BMP180;62809;51.090;-115.358;2022-10-31T00:31:35;85905.20;;;19.96
74374;BMP180;62809;51.090;-115.358;2022-10-31T00:34:03;85905.80;;;19.90
74374;BMP180;62809;51.090;-115.358;2022-10-31T00:36:32;85910.20;;;19.90
74374;BMP180;62809;51.090;-115.358;2022-10-31T00:38:59;85914.80;;;19.90
74374;BMP180;62809;51.090;-115.358;2022-10-31T00:41:29;85923.40;;;19.90
74374;BMP180;62809;51.090;-115.358;2022-10-31T00:44:02;85925.80;;;19.90
74374;BMP180;62809;51.090;-115.358;2022-10-31T00:46:31;85914.00;;;19.90
74374;BMP180;62809;51.090;-115.358;2022-10-31T00:48:59;85907.80;;;19.90
74374;BMP180;62809;51.090;-115.358;2022-10-31T00:51:26;85918.20;;;19.90
74374;BMP180;62809;51.090;-115.358;2022-10-31T00:53:55;85925.40;;;19.90
74374;BMP180;62809;51.090;-115.358;2022-10-31T00:56:22;85917.40;;;19.90
74374;BMP180;62809;51.090;-115.358;2022-10-31T00:58:49;85936.60;;;19.90
74374;BMP180;62809;51.090;-115.358;2022-10-31T01:01:20;85941.20;;;19.90
74374;BMP180;62809;51.090;-115.358;2022-10-31T01:03:47;85927.20;;;19.90
74374;BMP180;62809;51.090;-115.358;2022-10-31T01:06:21;85922.80;;;19.90
74374;BMP180;62809;51.090;-115.358;2022-10-31T01:08:48;85924.20;;;19.90
74374;BMP180;62809;51.090;-115.358;2022-10-31T01:11:21;85926.00;;;19.90
74374;BMP180;62809;51.090;-115.358;2022-10-31T01:13:54;85922.20;;;19.90
74374;BMP180;62809;51.090;-115.358;2022-10-31T01:16:25;85931.20;;;19.90
74374;BMP180;62809;51.090;-115.358;2022-10-31T01:18:53;85909.20;;;19.90
74374;BMP180;62809;51.090;-115.358;2022-10-31T01:21:24;85907.60;;;19.90
74374;BMP180;62809;51.090;-115.358;2022-10-31T01:23:54;85920.00;;;19.90
74374;BMP180;62809;51.090;-115.358;2022-10-31T01:26:27;85914.40;;;19.90
74374;BMP180;62809;51.090;-115.358;2022-10-31T01:28:59;85913.80;;;19.90
74374;BMP180;62809;51.090;-115.358;2022-10-31T01:31:31;85928.40;;;19.90
74374;BMP180;62809;51.090;-115.358;2022-10-31T01:34:00;85914.40;;;19.90
74374;BMP180;62809;51.090;-115.358;2022-10-31T01:36:35;85911.20;;;19.88
74374;BMP180;62809;51.090;-115.358;2022-10-31T01:39:12;85919.20;;;19.86
74374;BMP180;62809;51.090;-115.358;2022-10-31T01:41:45;85924.80;;;19.80
74374;BMP180;62809;51.090;-115.358;2022-10-31T01:47:15;85929.40;;;19.80
74374;BMP180;62809;51.090;-115.358;2022-10-31T01:50:20;85940.60;;;19.80
74374;BMP180;62809;51.090;-115.358;2022-10-31T01:52:53;85951.40;;;19.80
74374;BMP180;62809;51.090;-115.358;2022-10-31T01:55:40;85938.00;;;19.80
74374;BMP180;62809;51.090;-115.358;2022-10-31T01:58:20;85943.20;;;19.80
74374;BMP180;62809;51.090;-115.358;2022-10-31T02:00:55;85946.20;;;19.80
74374;BMP180;62809;51.090;-115.358;2022-10-31T02:03:27;85938.40;;;19.80
74374;BMP180;62809;51.090;-115.358;2022-10-31T02:05:57;85932.80;;;19.80
74374;BMP180;62809;51.090;-115.358;2022-10-31T02:08:30;85932.00;;;19.80
74374;BMP180;62809;51.090;-115.358;2022-10-31T02:10:59;85941.60;;;19.76
74374;BMP180;62809;51.090;-115.358;2022-10-31T02:13:30;85938.20;;;19.70
74374;BMP180;62809;51.090;-115.358;2022-10-31T02:16:00;85943.00;;;19.70
74374;BMP180;62809;51.090;-115.358;2022-10-31T02:18:30;85935.80;;;19.70
74374;BMP180;62809;51.090;-115.358;2022-10-31T02:27:29;85948.80;;;19.70
74374;BMP180;62809;51.090;-115.358;2022-10-31T02:35:33;85964.40;;;19.70
74374;BMP180;62809;51.090;-115.358;2022-10-31T02:38:41;85974.60;;;19.70
74374;BMP180;62809;51.090;-115.358;2022-10-31T02:44:06;85959.00;;;19.70
74374;BMP180;62809;51.090;-115.358;2022-10-31T02:49:45;85967.40;;;19.70
74374;BMP180;62809;51.090;-115.358;2022-10-31T02:52:21;85966.00;;;19.66
74374;BMP180;62809;51.090;-115.358;2022-10-31T02:54:53;85958.00;;;19.62
74374;BMP180;62809;51.090;-115.358;2022-10-31T02:57:30;85966.40;;;19.60
74374;BMP180;62809;51.090;-115.358;2022-10-31T03:00:05;85962.80;;;19.62
74374;BMP180;62809;51.090;-115.358;2022-10-31T03:06:03;85957.60;;;19.60
74374;BMP180;62809;51.090;-115.358;2022-10-31T03:08:47;85960.20;;;19.60
74374;BMP180;62809;51.090;-115.358;2022-10-31T03:11:22;85952.60;;;19.60
74374;BMP180;62809;51.090;-115.358;2022-10-31T03:14:05;85956.00;;;19.60
74374;BMP180;62809;51.090;-115.358;2022-10-31T03:16:50;85951.00;;;19.60
74374;BMP180;62809;51.090;-115.358;2022-10-31T03:19:39;85950.00;;;19.60
74374;BMP180;62809;51.090;-115.358;2022-10-31T03:22:26;85952.40;;;19.60
74374;BMP180;62809;51.090;-115.358;2022-10-31T03:25:01;85943.80;;;19.60
74374;BMP180;62809;51.090;-115.358;2022-10-31T03:27:45;85931.40;;;19.60
74374;BMP180;62809;51.090;-115.358;2022-10-31T03:30:16;85942.80;;;19.60
74374;BMP180;62809;51.090;-115.358;2022-10-31T03:32:56;85957.20;;;19.60
74374;BMP180;62809;51.090;-115.358;2022-10-31T03:35:28;85956.40;;;19.60
74374;BMP180;62809;51.090;-115.358;2022-10-31T03:38:00;85954.00;;;19.60
74374;BMP180;62809;51.090;-115.358;2022-10-31T03:40:32;85947.80;;;19.60
74374;BMP180;62809;51.090;-115.358;2022-10-31T03:43:12;85952.40;;;19.60
74374;BMP180;62809;51.090;-115.358;2022-10-31T03:45:45;85947.40;;;19.60
74374;BMP180;62809;51.090;-115.358;2022-10-31T03:48:18;85937.80;;;19.60
74374;BMP180;62809;51.090;-115.358;2022-10-31T03:51:32;85948.00;;;19.60
74374;BMP180;62809;51.090;-115.358;2022-10-31T03:57:15;85948.00;;;19.60
74374;BMP180;62809;51.090;-115.358;2022-10-31T03:59:53;85953.20;;;19.58
74374;BMP180;62809;51.090;-115.358;2022-10-31T04:02:32;85951.60;;;19.56
74374;BMP180;62809;51.090;-115.358;2022-10-31T04:05:01;85945.60;;;19.50
74374;BMP180;62809;51.090;-115.358;2022-10-31T04:07:38;85937.20;;;19.50
74374;BMP180;62809;51.090;-115.358;2022-10-31T04:10:13;85946.60;;;19.50
74374;BMP180;62809;51.090;-115.358;2022-10-31T04:12:49;85957.00;;;19.50
74374;BMP180;62809;51.090;-115.358;2022-10-31T04:15:19;85948.40;;;19.50
74374;BMP180;62809;51.090;-115.358;2022-10-31T04:17:50;85947.60;;;19.50
74374;BMP180;62809;51.090;-115.358;2022-10-31T04:20:37;85951.20;;;19.50
74374;BMP180;62809;51.090;-115.358;2022-10-31T04:25:43;85949.80;;;19.50
74374;BMP180;62809;51.090;-115.358;2022-10-31T04:28:11;85952.00;;;19.50
74374;BMP180;62809;51.090;-115.358;2022-10-31T04:30:40;85942.40;;;19.50
74374;BMP180;62809;51.090;-115.358;2022-10-31T04:33:08;85944.40;;;19.50
74374;BMP180;62809;51.090;-115.358;2022-10-31T04:35:35;85953.60;;;19.50
74374;BMP180;62809;51.090;-115.358;2022-10-31T04:38:03;85956.20;;;19.50
74374;BMP180;62809;51.090;-115.358;2022-10-31T04:40:31;85955.20;;;19.50
74374;BMP180;62809;51.090;-115.358;2022-10-31T04:42:58;85956.20;;;19.50
74374;BMP180;62809;51.090;-115.358;2022-10-31T04:45:25;85937.60;;;19.50
74374;BMP180;62809;51.090;-115.358;2022-10-31T04:47:54;85937.40;;;19.50
74374;BMP180;62809;51.090;-115.358;2022-10-31T04:50:22;85946.60;;;19.50
74374;BMP180;62809;51.090;-115.358;2022-10-31T04:52:54;85952.60;;;19.50
74374;BMP180;62809;51.090;-115.358;2022-10-31T04:55:22;85961.40;;;19.44
74374;BMP180;62809;51.090;-115.358;2022-10-31T04:58:00;85949.20;;;19.48
74374;BMP180;62809;51.090;-115.358;2022-10-31T05:00:28;85947.80;;;19.46
74374;BMP180;62809;51.090;-115.358;2022-10-31T05:03:00;85958.60;;;19.46
74374;BMP180;62809;51.090;-115.358;2022-10-31T05:05:31;85972.60;;;19.50
74374;BMP180;62809;51.090;-115.358;2022-10-31T05:07:59;85974.20;;;19.50
74374;BMP180;62809;51.090;-115.358;2022-10-31T05:10:30;85962.00;;;19.50
74374;BMP180;62809;51.090;-115.358;2022-10-31T05:13:01;85960.20;;;19.50
74374;BMP180;62809;51.090;-115.358;2022-10-31T05:15:31;85965.40;;;19.48
74374;BMP180;62809;51.090;-115.358;2022-10-31T05:17:59;85974.40;;;19.46
74374;BMP180;62809;51.090;-115.358;2022-10-31T05:20:30;85971.60;;;19.42
74374;BMP180;62809;51.090;-115.358;2022-10-31T05:22:59;85979.80;;;19.42
74374;BMP180;62809;51.090;-115.358;2022-10-31T05:25:28;85982.80;;;19.42
74374;BMP180;62809;51.090;-115.358;2022-10-31T05:27:58;85970.80;;;19.40
74374;BMP180;62809;51.090;-115.358;2022-10-31T05:30:31;85967.20;;;19.40
74374;BMP180;62809;51.090;-115.358;2022-10-31T05:32:59;85971.00;;;19.40
74374;BMP180;62809;51.090;-115.358;2022-10-31T05:35:31;85970.00;;;19.40
74374;BMP180;62809;51.090;-115.358;2022-10-31T05:38:00;85972.80;;;19.40
74374;BMP180;62809;51.090;-115.358;2022-10-31T05:40:28;85974.80;;;19.40
74374;BMP180;62809;51.090;-115.358;2022-10-31T05:42:57;85973.60;;;19.40
74374;BMP180;62809;51.090;-115.358;2022-10-31T05:45:27;85977.00;;;19.40
74374;BMP180;62809;51.090;-115.358;2022-10-31T05:48:01;85965.00;;;19.40
74374;BMP180;62809;51.090;-115.358;2022-10-31T05:50:31;85962.20;;;19.40
74374;BMP180;62809;51.090;-115.358;2022-10-31T05:53:03;85972.00;;;19.40
74374;BMP180;62809;51.090;-115.358;2022-10-31T05:55:31;85981.40;;;19.40
74374;BMP180;62809;51.090;-115.358;2022-10-31T05:57:59;85972.60;;;19.40
74374;BMP180;62809;51.090;-115.358;2022-10-31T06:00:27;85968.00;;;19.40
74374;BMP180;62809;51.090;-115.358;2022-10-31T06:03:09;85966.20;;;19.40
74374;BMP180;62809;51.090;-115.358;2022-10-31T06:05:36;85986.20;;;19.40
74374;BMP180;62809;51.090;-115.358;2022-10-31T06:08:04;85974.00;;;19.40
74374;BMP180;62809;51.090;-115.358;2022-10-31T06:10:32;85965.20;;;19.40
74374;BMP180;62809;51.090;-115.358;2022-10-31T06:12:59;85967.00;;;19.40
74374;BMP180;62809;51.090;-115.358;2022-10-31T06:15:27;85973.00;;;19.40
74374;BMP180;62809;51.090;-115.358;2022-10-31T06:18:03;85969.00;;;19.40
74374;BMP180;62809;51.090;-115.358;2022-10-31T06:20:30;85970.20;;;19.40
74374;BMP180;62809;51.090;-115.358;2022-10-31T06:22:58;85974.20;;;19.40
74374;BMP180;62809;51.090;-115.358;2022-10-31T06:25:27;85973.80;;;19.40
74374;BMP180;62809;51.090;-115.358;2022-10-31T06:27:55;85968.80;;;19.40
74374;BMP180;62809;51.090;-115.358;2022-10-31T06:30:23;85970.00;;;19.40
74374;BMP180;62809;51.090;-115.358;2022-10-31T06:32:51;85968.20;;;19.40
74374;BMP180;62809;51.090;-115.358;2022-10-31T06:35:19;85970.60;;;19.40
74374;BMP180;62809;51.090;-115.358;2022-10-31T06:37:56;85972.00;;;19.40
74374;BMP180;62809;51.090;-115.358;2022-10-31T06:40:27;85972.20;;;19.40
74374;BMP180;62809;51.090;-115.358;2022-10-31T06:43:00;85974.80;;;19.40
74374;BMP180;62809;51.090;-115.358;2022-10-31T06:45:28;85977.00;;;19.38
74374;BMP180;62809;51.090;-115.358;2022-10-31T06:47:56;85965.80;;;19.40
74374;BMP180;62809;51.090;-115.358;2022-10-31T06:50:24;85950.20;;;19.32
74374;BMP180;62809;51.090;-115.358;2022-10-31T06:52:58;85949.60;;;19.30
74374;BMP180;62809;51.090;-115.358;2022-10-31T06:55:29;85947.40;;;19.30
74374;BMP180;62809;51.090;-115.358;2022-10-31T06:58:01;85956.60;;;19.30
74374;BMP180;62809;51.090;-115.358;2022-10-31T07:00:32;85960.00;;;19.30
74374;BMP180;62809;51.090;-115.358;2022-10-31T07:03:10;85960.20;;;19.30
74374;BMP180;62809;51.090;-115.358;2022-10-31T07:05:40;85967.20;;;19.30
74374;BMP180;62809;51.090;-115.358;2022-10-31T07:08:11;85963.00;;;19.30
74374;BMP180;62809;51.090;-115.358;2022-10-31T07:10:41;85976.60;;;19.30
74374;BMP180;62809;51.090;-115.358;2022-10-31T07:13:13;85979.20;;;19.30
74374;BMP180;62809;51.090;-115.358;2022-10-31T07:15:43;85966.80;;;19.30
74374;BMP180;62809;51.090;-115.358;2022-10-31T07:18:12;85962.00;;;19.30
74374;BMP180;62809;51.090;-115.358;2022-10-31T07:20:40;85965.20;;;19.30
74374;BMP180;62809;51.090;-115.358;2022-10-31T07:23:11;85964.40;;;19.30
74374;BMP180;62809;51.090;-115.358;2022-10-31T07:25:40;85963.60;;;19.30
74374;BMP180;62809;51.090;-115.358;2022-10-31T07:28:09;85963.80;;;19.30
74374;BMP180;62809;51.090;-115.358;2022-10-31T07:30:39;85971.40;;;19.30
74374;BMP180;62809;51.090;-115.358;2022-10-31T07:33:08;85970.80;;;19.30
74374;BMP180;62809;51.090;-115.358;2022-10-31T07:35:35;85956.20;;;19.30
74374;BMP180;62809;51.090;-115.358;2022-10-31T07:38:11;85961.00;;;19.30
74374;BMP180;62809;51.090;-115.358;2022-10-31T07:40:40;85966.20;;;19.30
74374;BMP180;62809;51.090;-115.358;2022-10-31T07:43:10;85966.40;;;19.30
74374;BMP180;62809;51.090;-115.358;2022-10-31T07:45:38;85959.80;;;19.30
74374;BMP180;62809;51.090;-115.358;2022-10-31T07:48:05;85963.00;;;19.30
74374;BMP180;62809;51.090;-115.358;2022-10-31T07:50:33;85961.80;;;19.30
74374;BMP180;62809;51.090;-115.358;2022-10-31T07:53:10;85967.80;;;19.30
74374;BMP180;62809;51.090;-115.358;2022-10-31T07:55:42;85981.80;;;19.30
74374;BMP180;62809;51.090;-115.358;2022-10-31T07:58:13;85973.60;;;19.30
74374;BMP180;62809;51.090;-115.358;2022-10-31T08:00:44;85959.40;;;19.28
74374;BMP180;62809;51.090;-115.358;2022-10-31T08:03:18;85969.80;;;19.30
74374;BMP180;62809;51.090;-115.358;2022-10-31T08:05:46;85980.40;;;19.26
74374;BMP180;62809;51.090;-115.358;2022-10-31T08:08:16;85979.80;;;19.24
74374;BMP180;62809;51.090;-115.358;2022-10-31T08:10:46;85976.20;;;19.26
74374;BMP180;62809;51.090;-115.358;2022-10-31T08:13:16;85972.80;;;19.22
74374;BMP180;62809;51.090;-115.358;2022-10-31T08:15:47;85975.60;;;19.20
74374;BMP180;62809;51.090;-115.358;2022-10-31T08:18:17;85965.20;;;19.20
74374;BMP180;62809;51.090;-115.358;2022-10-31T08:20:44;85962.60;;;19.20
74374;BMP180;62809;51.090;-115.358;2022-10-31T08:23:18;85980.40;;;19.20
74374;BMP180;62809;51.090;-115.358;2022-10-31T08:25:45;85984.00;;;19.20
74374;BMP180;62809;51.090;-115.358;2022-10-31T08:28:14;85966.00;;;19.20
74374;BMP180;62809;51.090;-115.358;2022-10-31T08:30:48;85977.20;;;19.20
74374;BMP180;62809;51.090;-115.358;2022-10-31T08:33:19;85968.60;;;19.20
74374;BMP180;62809;51.090;-115.358;2022-10-31T08:35:46;85966.80;;;19.20
74374;BMP180;62809;51.090;-115.358;2022-10-31T08:38:15;85972.20;;;19.20
74374;BMP180;62809;51.090;-115.358;2022-10-31T08:40:49;85979.40;;;19.20
74374;BMP180;62809;51.090;-115.358;2022-10-31T08:43:18;85988.40;;;19.20
74374;BMP180;62809;51.090;-115.358;2022-10-31T08:45:49;85977.60;;;19.20
74374;BMP180;62809;51.090;-115.358;2022-10-31T08:48:18;85964.20;;;19.20
74374;BMP180;62809;51.090;-115.358;2022-10-31T08:50:47;85960.00;;;19.20
74374;BMP180;62809;51.090;-115.358;2022-10-31T08:53:19;85965.00;;;19.20
74374;BMP180;62809;51.090;-115.358;2022-10-31T08:55:47;85962.60;;;19.20
74374;BMP180;62809;51.090;-115.358;2022-10-31T08:58:20;85967.80;;;19.20
74374;BMP180;62809;51.090;-115.358;2022-10-31T09:00:50;85955.60;;;19.20
74374;BMP180;62809;51.090;-115.358;2022-10-31T09:03:21;85953.60;;;19.20
74374;BMP180;62809;51.090;-115.358;2022-10-31T09:05:50;85948.20;;;19.20
74374;BMP180;62809;51.090;-115.358;2022-10-31T09:08:21;85950.80;;;19.20
74374;BMP180;62809;51.090;-115.358;2022-10-31T09:10:49;85940.80;;;19.20
74374;BMP180;62809;51.090;-115.358;2022-10-31T09:13:20;85945.60;;;19.20
74374;BMP180;62809;51.090;-115.358;2022-10-31T09:15:49;85955.80;;;19.16
74374;BMP180;62809;51.090;-115.358;2022-10-31T09:18:20;85952.00;;;19.14
74374;BMP180;62809;51.090;-115.358;2022-10-31T09:20:50;85957.60;;;19.20
74374;BMP180;62809;51.090;-115.358;2022-10-31T09:23:24;85955.20;;;19.20
74374;BMP180;62809;51.090;-115.358;2022-10-31T09:25:53;85950.60;;;19.20
74374;BMP180;62809;51.090;-115.358;2022-10-31T09:28:23;85958.60;;;19.20
74374;BMP180;62809;51.090;-115.358;2022-10-31T09:30:53;85955.00;;;19.20
74374;BMP180;62809;51.090;-115.358;2022-10-31T09:33:23;85952.40;;;19.20
74374;BMP180;62809;51.090;-115.358;2022-10-31T09:35:51;85947.80;;;19.20
74374;BMP180;62809;51.090;-115.358;2022-10-31T09:38:20;85951.20;;;19.20
74374;BMP180;62809;51.090;-115.358;2022-10-31T09:44:46;85940.00;;;19.20
74374;BMP180;62809;51.090;-115.358;2022-10-31T09:50:22;85957.80;;;19.12
74374;BMP180;62809;51.090;-115.358;2022-10-31T09:55:47;85944.60;;;19.10
74374;BMP180;62809;51.090;-115.358;2022-10-31T09:58:28;85960.20;;;19.10
74374;BMP180;62809;51.090;-115.358;2022-10-31T10:01:01;85955.80;;;19.10
74374;BMP180;62809;51.090;-115.358;2022-10-31T10:03:46;85945.20;;;19.10
74374;BMP180;62809;51.090;-115.358;2022-10-31T10:06:24;85949.60;;;19.10
74374;BMP180;62809;51.090;-115.358;2022-10-31T10:08:55;85954.60;;;19.10
74374;BMP180;62809;51.090;-115.358;2022-10-31T10:17:47;85943.00;;;19.10
74374;BMP180;62809;51.090;-115.358;2022-10-31T10:20:36;85943.40;;;19.10
74374;BMP180;62809;51.090;-115.358;2022-10-31T10:26:38;85949.60;;;19.10
74374;BMP180;62809;51.090;-115.358;2022-10-31T10:29:40;85944.20;;;19.10
74374;BMP180;62809;51.090;-115.358;2022-10-31T10:32:40;85950.80;;;19.10
74374;BMP180;62809;51.090;-115.358;2022-10-31T10:37:52;85939.40;;;19.10
74374;BMP180;62809;51.090;-115.358;2022-10-31T10:40:26;85943.60;;;19.10
74374;BMP180;62809;51.090;-115.358;2022-10-31T10:46:17;85945.20;;;19.10
74374;BMP180;62809;51.090;-115.358;2022-10-31T10:52:45;85954.00;;;19.10
74374;BMP180;62809;51.090;-115.358;2022-10-31T10:55:34;85956.80;;;19.10
74374;BMP180;62809;51.090;-115.358;2022-10-31T10:58:10;85946.80;;;19.10
74374;BMP180;62809;51.090;-115.358;2022-10-31T11:00:44;85945.00;;;19.10
74374;BMP180;62809;51.090;-115.358;2022-10-31T11:03:20;85941.40;;;19.10
74374;BMP180;62809;51.090;-115.358;2022-10-31T11:05:54;85946.60;;;19.10
74374;BMP180;62809;51.090;-115.358;2022-10-31T11:08:34;85950.60;;;19.10
74374;BMP180;62809;51.090;-115.358;2022-10-31T11:11:22;85950.40;;;19.10
74374;BMP180;62809;51.090;-115.358;2022-10-31T11:14:03;85949.80;;;19.10
74374;BMP180;62809;51.090;-115.358;2022-10-31T11:16:37;85947.80;;;19.10
74374;BMP180;62809;51.090;-115.358;2022-10-31T11:19:23;85940.00;;;19.10
74374;BMP180;62809;51.090;-115.358;2022-10-31T11:21:52;85939.40;;;19.08
74374;BMP180;62809;51.090;-115.358;2022-10-31T11:24:28;85940.60;;;19.10
74374;BMP180;62809;51.090;-115.358;2022-10-31T11:27:24;85940.60;;;19.04
74374;BMP180;62809;51.090;-115.358;2022-10-31T11:29:52;85935.20;;;19.00
74374;BMP180;62809;51.090;-115.358;2022-10-31T11:32:26;85947.60;;;19.00
74374;BMP180;62809;51.090;-115.358;2022-10-31T11:35:02;85946.20;;;19.00
74374;BMP180;62809;51.090;-115.358;2022-10-31T11:37:43;85937.40;;;19.00
74374;BMP180;62809;51.090;-115.358;2022-10-31T11:40:24;85930.00;;;19.00
74374;BMP180;62809;51.090;-115.358;2022-10-31T11:42:58;85927.00;;;19.00
74374;BMP180;62809;51.090;-115.358;2022-10-31T11:45:42;85923.00;;;19.00
74374;BMP180;62809;51.090;-115.358;2022-10-31T11:48:27;85911.20;;;19.02
74374;BMP180;62809;51.090;-115.358;2022-10-31T11:50:59;85911.40;;;19.02
74374;BMP180;62809;51.090;-115.358;2022-10-31T11:53:33;85931.00;;;19.04
74374;BMP180;62809;51.090;-115.358;2022-10-31T11:58:35;85915.60;;;19.00
74374;BMP180;62809;51.090;-115.358;2022-10-31T12:01:05;85898.80;;;19.00
74374;BMP180;62809;51.090;-115.358;2022-10-31T12:06:44;85910.40;;;19.00
74374;BMP180;62809;51.090;-115.358;2022-10-31T12:17:56;85904.20;;;19.00
74374;BMP180;62809;51.090;-115.358;2022-10-31T12:26:38;85907.20;;;19.00
74374;BMP180;62809;51.090;-115.358;2022-10-31T12:38:15;85889.80;;;19.00
74374;BMP180;62809;51.090;-115.358;2022-10-31T12:41:11;85882.60;;;19.00
74374;BMP180;62809;51.090;-115.358;2022-10-31T12:44:13;85878.20;;;19.00
74374;BMP180;62809;51.090;-115.358;2022-10-31T12:47:26;85868.40;;;19.00
74374;BMP180;62809;51.090;-115.358;2022-10-31T12:50:10;85862.60;;;19.00
74374;BMP180;62809;51.090;-115.358;2022-10-31T13:00:57;85893.80;;;18.90
74374;BMP180;62809;51.090;-115.358;2022-10-31T13:03:58;85893.40;;;18.96
74374;BMP180;62809;51.090;-115.358;2022-10-31T13:06:37;85882.60;;;18.98
74374;BMP180;62809;51.090;-115.358;2022-10-31T13:09:17;85870.80;;;18.98
74374;BMP180;62809;51.090;-115.358;2022-10-31T13:11:55;85867.40;;;19.00
74374;BMP180;62809;51.090;-115.358;2022-10-31T13:14:36;85869.80;;;19.00
74374;BMP180;62809;51.090;-115.358;2022-10-31T13:17:06;85879.60;;;19.00
74374;BMP180;62809;51.090;-115.358;2022-10-31T13:19:46;85886.20;;;19.00
74374;BMP180;62809;51.090;-115.358;2022-10-31T13:22:24;85856.00;;;19.00
74374;BMP180;62809;51.090;-115.358;2022-10-31T13:25:27;85854.80;;;18.98
74374;BMP180;62809;51.090;-115.358;2022-10-31T13:28:00;85880.20;;;19.00
74374;BMP180;62809;51.090;-115.358;2022-10-31T13:30:33;85874.80;;;19.00
74374;BMP180;62809;51.090;-115.358;2022-10-31T13:44:25;85848.00;;;19.20
74374;BMP180;62809;51.090;-115.358;2022-10-31T13:46:56;85855.80;;;19.26
74374;BMP180;62809;51.090;-115.358;2022-10-31T13:52:14;85861.80;;;19.40
74374;BMP180;62809;51.090;-115.358;2022-10-31T13:57:24;85871.80;;;19.50
74374;BMP180;62809;51.090;-115.358;2022-10-31T14:02:57;85865.20;;;19.58
74374;BMP180;62809;51.090;-115.358;2022-10-31T14:05:34;85857.00;;;19.60
74374;BMP180;62809;51.090;-115.358;2022-10-31T14:08:17;85872.20;;;19.70
74374;BMP180;62809;51.090;-115.358;2022-10-31T14:10:53;85880.80;;;19.72
74374;BMP180;62809;51.090;-115.358;2022-10-31T14:13:44;85879.00;;;19.80
74374;BMP180;62809;51.090;-115.358;2022-10-31T14:16:28;85883.40;;;19.88
74374;BMP180;62809;51.090;-115.358;2022-10-31T14:19:17;85870.80;;;19.90
74374;BMP180;62809;51.090;-115.358;2022-10-31T14:21:47;85869.00;;;19.92
74374;BMP180;62809;51.090;-115.358;2022-10-31T14:24:33;85864.20;;;20.00
74374;BMP180;62809;51.090;-115.358;2022-10-31T14:27:04;85860.00;;;20.00
74374;BMP180;62809;51.090;-115.358;2022-10-31T14:29:52;85856.40;;;20.02
74374;BMP180;62809;51.090;-115.358;2022-10-31T14:32:25;85861.00;;;20.10
74374;BMP180;62809;51.090;-115.358;2022-10-31T14:34:57;85860.40;;;20.10
74374;BMP180;62809;51.090;-115.358;2022-10-31T14:44:11;85879.80;;;20.20
74374;BMP180;62809;51.090;-115.358;2022-10-31T14:47:02;85880.40;;;20.20
74374;BMP180;62809;51.090;-115.358;2022-10-31T14:52:10;85875.00;;;20.20
74374;BMP180;62809;51.090;-115.358;2022-10-31T14:54:45;85870.00;;;20.20
74374;BMP180;62809;51.090;-115.358;2022-10-31T14:57:22;85870.60;;;20.28
74374;BMP180;62809;51.090;-115.358;2022-10-31T15:00:03;85870.60;;;20.30
74374;BMP180;62809;51.090;-115.358;2022-10-31T15:05:13;85871.00;;;20.40
74374;BMP180;62809;51.090;-115.358;2022-10-31T15:07:58;85869.60;;;20.40
74374;BMP180;62809;51.090;-115.358;2022-10-31T15:10:32;85873.60;;;20.40
74374;BMP180;62809;51.090;-115.358;2022-10-31T15:13:19;85871.00;;;20.40
74374;BMP180;62809;51.090;-115.358;2022-10-31T15:15:52;85866.60;;;20.50
74374;BMP180;62809;51.090;-115.358;2022-10-31T15:18:26;85850.80;;;20.50
74374;BMP180;62809;51.090;-115.358;2022-10-31T15:20:56;85854.60;;;20.50
74374;BMP180;62809;51.090;-115.358;2022-10-31T15:23:31;85852.60;;;20.50
74374;BMP180;62809;51.090;-115.358;2022-10-31T15:26:05;85868.20;;;20.50
74374;BMP180;62809;51.090;-115.358;2022-10-31T15:28:33;85869.60;;;20.50
74374;BMP180;62809;51.090;-115.358;2022-10-31T15:31:02;85870.20;;;20.50
74374;BMP180;62809;51.090;-115.358;2022-10-31T15:33:39;85872.80;;;20.50
74374;BMP180;62809;51.090;-115.358;2022-10-31T15:36:24;85867.60;;;20.50
74374;BMP180;62809;51.090;-115.358;2022-10-31T15:38:51;85871.60;;;20.60
74374;BMP180;62809;51.090;-115.358;2022-10-31T15:41:35;85869.60;;;20.60
74374;BMP180;62809;51.090;-115.358;2022-10-31T15:44:20;85870.00;;;20.70
74374;BMP180;62809;51.090;-115.358;2022-10-31T15:47:04;85872.00;;;20.70
74374;BMP180;62809;51.090;-115.358;2022-10-31T15:49:35;85869.80;;;20.70
74374;BMP180;62809;51.090;-115.358;2022-10-31T15:54:48;85875.00;;;20.70
74374;BMP180;62809;51.090;-115.358;2022-10-31T15:57:16;85870.00;;;20.80
74374;BMP180;62809;51.090;-115.358;2022-10-31T15:59:48;85862.80;;;20.80
74374;BMP180;62809;51.090;-115.358;2022-10-31T16:02:25;85869.40;;;20.80
74374;BMP180;62809;51.090;-115.358;2022-10-31T16:05:14;85869.00;;;20.80
74374;BMP180;62809;51.090;-115.358;2022-10-31T16:07:49;85867.60;;;20.80
74374;BMP180;62809;51.090;-115.358;2022-10-31T16:10:27;85858.40;;;20.82
74374;BMP180;62809;51.090;-115.358;2022-10-31T16:12:54;85847.20;;;20.90
74374;BMP180;62809;51.090;-115.358;2022-10-31T16:15:21;85851.00;;;20.88
74374;BMP180;62809;51.090;-115.358;2022-10-31T16:17:52;85858.60;;;20.86
74374;BMP180;62809;51.090;-115.358;2022-10-31T16:22:53;85866.60;;;20.80